Time;durP1;ratioP1;P1;durP2;ratioP2;P2;SDS_P1;SDS_P2;PMS_P1;PMS_P2;Temp;Humidity;BMP_temperature;BMP_pressure;BME280_temperature;BME280_humidity;BME280_pressure;Samples;Min_cycle;Max_cycle;Signal;HPM_P1;HPM_P2
2023/05/07 07:23:08;;;;;;;18.92;17.17;;;;;;;-145.79;90.47;77485.38;5279483;28;20395;-75
2023/05/07 07:25:42;;;;;;;17.75;15.93;;;;;;;-145.79;90.84;77479.03;5278998;28;20037;-75
2023/05/07 07:28:14;;;;;;;18.60;16.90;;;;;;;-145.79;90.71;77474.78;5261583;28;20033;-76
2023/05/07 07:30:45;;;;;;;18.20;16.52;;;;;;;-145.79;90.81;77476.91;5271756;28;20082;-75
2023/05/07 07:33:16;;;;;;;19.55;17.83;;;;;;;-145.79;91.14;77466.31;5279331;28;20025;-75
2023/05/07 07:35:48;;;;;;;17.95;16.27;;;;;;;-145.79;90.40;77468.41;5280001;28;20416;-76
2023/05/07 07:38:19;;;;;;;17.65;16.15;;;;;;;-145.79;90.48;77462.06;5258352;28;20140;-76
2023/05/07 07:40:51;;;;;;;18.77;16.95;;;;;;;-145.79;90.19;77462.06;5258714;28;20025;-76
2023/05/07 07:43:22;;;;;;;17.67;16.10;;;;;;;-145.79;89.92;77455.69;5271343;28;20017;-76
2023/05/07 07:45:56;;;;;;;18.20;16.67;;;;;;;-145.79;89.84;77451.47;5279653;28;20035;-77
2023/05/07 07:48:27;;;;;;;17.77;16.08;;;;;;;-145.79;89.95;77436.63;5260036;28;20057;-77
2023/05/07 07:50:59;;;;;;;18.25;16.65;;;;;;;-145.79;89.60;77434.50;5275516;28;20506;-79
2023/05/07 07:53:30;;;;;;;18.13;16.50;;;;;;;-145.79;89.18;77438.75;5279021;28;20021;-77
2023/05/07 07:56:01;;;;;;;16.80;15.30;;;;;;;-145.79;88.71;77419.66;5272304;28;20052;-76
2023/05/07 07:58:35;;;;;;;19.65;16.23;;;;;;;-145.79;88.73;77415.44;5259248;28;20029;-78
2023/05/07 08:01:09;;;;;;;17.15;15.57;;;;;;;-145.79;88.80;77404.84;5257432;28;20053;-78
2023/05/07 08:03:41;;;;;;;17.07;15.47;;;;;;;-145.79;87.88;77411.19;5262399;28;20486;-78
2023/05/07 08:06:12;;;;;;;16.77;15.35;;;;;;;-145.79;87.94;77400.59;5262902;28;20117;-78
2023/05/07 08:08:44;;;;;;;17.48;16.08;;;;;;;-145.79;88.12;77398.47;5257558;28;20033;-78
2023/05/07 08:11:15;;;;;;;18.15;16.65;;;;;;;-145.79;87.90;77385.75;5268776;28;20036;-77
2023/05/07 08:13:47;;;;;;;17.13;15.48;;;;;;;-145.79;87.42;77381.50;5278536;28;20349;-77
2023/05/07 08:16:18;;;;;;;16.73;14.95;;;;;;;-145.79;87.74;77364.56;5278131;28;20021;-77
2023/05/07 08:18:49;;;;;;;18.42;16.75;;;;;;;-145.79;88.14;77360.31;5263928;28;20527;-76
2023/05/07 08:21:22;;;;;;;17.45;15.98;;;;;;;-145.79;87.35;77353.97;5266951;28;20097;-77
2023/05/07 08:23:54;;;;;;;17.55;16.08;;;;;;;-145.79;87.02;77341.25;5277258;28;20498;-78
2023/05/07 08:26:25;;;;;;;16.17;14.68;;;;;;;-145.79;86.58;77339.13;5276420;28;20132;-77
2023/05/07 08:28:56;;;;;;;15.90;14.45;;;;;;;-145.79;86.50;77324.28;5276534;28;20531;-77
2023/05/07 08:31:29;;;;;;;16.42;14.95;;;;;;;-145.79;86.52;77315.81;5275660;28;20025;-77
2023/05/07 08:34:01;;;;;;;16.80;15.27;;;;;;;-145.79;85.81;77313.69;5245336;28;20040;-76
2023/05/07 08:36:32;;;;;;;15.10;13.80;;;;;;;-145.79;84.66;77309.44;5241930;28;20023;-77
2023/05/07 08:39:03;;;;;;;15.52;14.32;;;;;;;-145.79;84.87;77296.72;5258887;28;20028;-77
2023/05/07 08:41:35;;;;;;;16.20;14.70;;;;;;;-145.79;85.43;77286.13;5247807;28;20092;-77
2023/05/07 08:44:11;;;;;;;16.10;14.63;;;;;;;-145.79;84.92;77284.00;5243054;28;20021;-76
2023/05/07 08:46:46;;;;;;;15.60;13.55;;;;;;;-145.79;83.89;77281.91;5243223;28;20400;-77
2023/05/07 08:49:21;;;;;;;15.73;14.45;;;;;;;-145.79;83.13;77292.50;5264226;28;20373;-77
2023/05/07 08:51:52;;;;;;;15.73;14.27;;;;;;;-145.79;83.72;77279.78;5259087;28;20108;-76
2023/05/07 08:54:25;;;;;;;15.70;14.30;;;;;;;-145.79;83.68;77279.78;5244436;28;20116;-78
2023/05/07 08:56:57;;;;;;;16.92;15.43;;;;;;;-145.79;83.32;77273.41;5263560;28;20075;-77
2023/05/07 08:59:28;;;;;;;16.40;14.98;;;;;;;-145.79;83.28;77267.06;5243441;28;20408;-77
2023/05/07 09:01:59;;;;;;;26.90;23.92;;;;;;;-145.79;83.15;77260.69;5250988;28;20032;-78
2023/05/07 09:04:31;;;;;;;16.08;14.57;;;;;;;-145.79;83.32;77250.09;5257225;28;20427;-78
2023/05/07 09:07:05;;;;;;;15.88;14.38;;;;;;;-145.79;83.14;77245.84;5263270;28;20029;-77
2023/05/07 09:09:37;;;;;;;18.27;16.52;;;;;;;-145.79;82.58;77239.50;5250021;28;20041;-80
2023/05/07 09:12:08;;;;;;;18.35;16.50;;;;;;;-145.79;82.89;77237.38;5253850;28;20059;-77
2023/05/07 09:14:39;;;;;;;18.55;16.90;;;;;;;-145.79;82.50;77233.16;5241179;28;20049;-78
2023/05/07 09:17:11;;;;;;;18.48;17.02;;;;;;;-145.79;82.46;77237.38;5253308;28;20330;-77
2023/05/07 09:19:48;;;;;;;18.42;16.92;;;;;;;-145.79;82.32;77233.16;5261007;28;20017;-75
2023/05/07 09:22:20;;;;;;;18.10;16.23;;;;;;;-145.79;82.69;77224.66;5261588;28;20683;-77
2023/05/07 09:24:51;;;;;;;18.73;17.02;;;;;;;-145.79;82.15;77231.03;5262136;28;20114;-77
2023/05/07 09:27:22;;;;;;;18.02;16.38;;;;;;;-145.79;81.69;77231.03;5262537;28;20078;-77
2023/05/07 09:29:54;;;;;;;19.23;17.63;;;;;;;-145.79;81.66;77216.19;5249512;28;20029;-77
2023/05/07 09:32:27;;;;;;;22.55;20.63;;;;;;;-145.79;80.83;77226.78;5243286;28;20034;-78
2023/05/07 09:34:58;;;;;;;19.58;17.77;;;;;;;-145.79;81.39;77226.78;5260800;28;20040;-78
2023/05/07 09:37:31;;;;;;;19.27;17.58;;;;;;;-145.79;81.90;77224.66;5263730;28;20021;-79
2023/05/07 09:40:02;;;;;;;18.52;16.95;;;;;;;-145.79;81.25;77222.53;5262750;28;20025;-79
2023/05/07 09:42:34;;;;;;;30.95;28.20;;;;;;;-145.79;81.15;77214.06;5263178;28;20424;-79
2023/05/07 09:45:06;;;;;;;18.83;17.23;;;;;;;-145.79;81.19;77207.72;5261545;28;20082;-76
2023/05/07 09:47:39;;;;;;;19.10;17.38;;;;;;;-145.79;81.56;77195.00;5252414;28;20473;-77
2023/05/07 09:50:12;;;;;;;17.95;16.45;;;;;;;-145.79;81.42;77182.28;5263467;28;20021;-77
2023/05/07 09:52:44;;;;;;;17.63;16.23;;;;;;;-145.79;80.71;77186.50;5263513;28;20033;-77
2023/05/07 09:55:16;;;;;;;18.08;16.55;;;;;;;-145.79;80.36;77184.41;5258848;28;20021;-77
2023/05/07 09:57:50;;;;;;;19.25;17.75;;;;;;;-145.79;80.78;77178.03;5244938;28;20166;-78
2023/05/07 10:00:22;;;;;;;18.45;17.02;;;;;;;-145.79;80.56;77184.41;5247962;28;20032;-78
2023/05/07 10:02:57;;;;;;;17.67;16.13;;;;;;;-145.79;80.29;77178.03;5256676;28;20033;-77
2023/05/07 10:05:29;;;;;;;17.43;15.93;;;;;;;-145.79;79.65;77171.69;5240991;28;20550;-77
2023/05/07 10:08:00;;;;;;;18.30;16.83;;;;;;;-145.79;79.92;77169.56;5241417;28;20280;-78
2023/05/07 10:10:33;;;;;;;17.65;16.17;;;;;;;-145.79;80.19;77158.97;5242537;28;20319;-77
2023/05/07 10:13:09;;;;;;;18.65;17.15;;;;;;;-145.79;79.62;77169.56;5252744;28;20506;-77
2023/05/07 10:15:41;;;;;;;17.92;16.30;;;;;;;-145.79;79.64;77163.19;5262104;28;20060;-77
2023/05/07 10:18:13;;;;;;;17.50;15.93;;;;;;;-145.79;79.84;77148.34;5262660;28;20480;-77
2023/05/07 10:20:46;;;;;;;18.33;16.63;;;;;;;-145.79;79.59;77146.25;5249485;28;20068;-76
2023/05/07 10:23:23;;;;;;;17.10;15.50;;;;;;;-145.79;78.37;77148.34;5241269;28;20100;-78
2023/05/07 10:25:56;;;;;;;17.30;15.88;;;;;;;-145.79;78.47;77125.03;5241868;28;20074;-77
2023/05/07 10:28:34;;;;;;;19.23;17.58;;;;;;;-145.79;78.28;77112.31;5241509;28;20032;-78
2023/05/07 10:31:17;;;;;;;17.85;16.40;;;;;;;-145.79;77.62;77105.97;5261030;28;20053;-79
2023/05/07 10:33:51;;;;;;;17.08;15.68;;;;;;;-145.79;77.04;77084.78;5261458;28;20020;-78
2023/05/07 10:36:23;;;;;;;15.77;14.38;;;;;;;-145.79;75.84;77084.78;5259795;28;20025;-85
2023/05/07 10:38:55;;;;;;;16.55;15.13;;;;;;;-145.79;75.89;77072.06;5262041;28;20075;-83
2023/05/07 10:41:26;;;;;;;15.52;14.23;;;;;;;-145.79;74.85;77074.19;5263751;28;20017;-83
2023/05/07 10:44:01;;;;;;;16.85;14.48;;;;;;;-145.79;75.45;77057.22;5251198;28;20025;-84
2023/05/07 10:46:35;;;;;;;17.10;15.68;;;;;;;-145.79;74.90;77059.34;5249721;28;20029;-81
2023/05/07 10:49:06;;;;;;;17.45;15.85;;;;;;;-145.79;75.67;77044.50;5245256;28;20500;-83
2023/05/07 10:51:38;;;;;;;15.95;14.63;;;;;;;-145.79;74.87;77048.75;5263219;28;20021;-82
2023/05/07 10:54:09;;;;;;;22.15;20.33;;;;;;;-145.79;75.88;77046.63;5258112;28;20029;-82
2023/05/07 10:56:45;;;;;;;16.73;15.27;;;;;;;-145.79;75.60;77036.03;5249849;28;20090;-81
2023/05/07 10:59:20;;;;;;;16.20;14.73;;;;;;;-145.79;74.52;77050.88;5250362;28;20052;-80
2023/05/07 11:01:55;;;;;;;16.25;14.88;;;;;;;-145.79;74.07;77042.38;5267341;28;20041;-81
2023/05/07 11:04:27;;;;;;;15.80;14.40;;;;;;;-145.79;74.20;77027.56;5269560;28;20102;-82
2023/05/07 11:07:12;;;;;;;15.45;14.07;;;;;;;-145.79;74.23;77033.91;5272313;28;20037;-79
2023/05/07 11:09:53;;;;;;;13.63;12.57;;;;;;;-145.79;73.26;77038.16;5261058;28;20090;-81
2023/05/07 11:12:36;;;;;;;13.52;12.43;;;;;;;-145.79;72.45;77042.38;5251508;28;20673;-80
2023/05/07 11:15:12;;;;;;;14.05;12.65;;;;;;;-145.79;72.60;77029.66;5252315;28;20037;-81
2023/05/07 11:17:58;;;;;;;34.22;31.08;;;;;;;-145.79;73.02;77036.03;5263074;28;20070;-81
2023/05/07 11:20:49;;;;;;;15.07;13.98;;;;;;;-145.79;72.97;77027.56;5266063;28;20021;-82
2023/05/07 11:23:33;;;;;;;14.65;13.40;;;;;;;-145.79;72.55;77012.72;5265635;28;20044;-83
2023/05/07 11:26:09;;;;;;;13.55;12.38;;;;;;;-145.79;71.69;76995.75;5265058;28;20111;-81
2023/05/07 11:28:42;;;;;;;11.73;10.73;;;;;;;-145.79;69.59;76983.03;5251152;28;20021;-83
2023/05/07 11:31:13;;;;;;;14.95;13.50;;;;;;;-145.79;67.85;76970.31;5244499;28;20033;-81
2023/05/07 11:33:48;;;;;;;11.13;10.23;;;;;;;-145.79;67.04;76957.59;5246034;28;20020;-81
2023/05/07 11:36:21;;;;;;;13.02;11.77;;;;;;;-145.79;66.15;76957.59;5245142;28;20049;-82
2023/05/07 11:38:53;;;;;;;11.55;10.55;;;;;;;-145.79;66.01;76970.31;5251588;28;20025;-81
2023/05/07 11:41:36;;;;;;;9.60;8.60;;;;;;;-145.79;65.54;76957.59;5275233;28;20037;-81
2023/05/07 11:44:07;;;;;;;11.40;10.40;;;;;;;-145.79;65.67;76944.91;5277078;28;20025;-82
2023/05/07 11:46:43;;;;;;;12.35;9.32;;;;;;;-145.79;65.07;76936.41;5281771;28;20100;-83
2023/05/07 11:49:14;;;;;;;;;;;;;;;-145.79;66.61;76923.69;5284974;28;20029;-83
2023/05/07 11:51:46;;;;;;;11.07;9.32;;;;;;;-145.79;64.77;76932.19;5283958;28;19920;-82
2023/05/07 11:54:17;;;;;;;10.65;9.85;;;;;;;-145.79;64.83;76930.06;5283137;28;20077;-83
2023/05/07 11:57:01;;;;;;;11.30;10.20;;;;;;;-145.79;65.52;76936.41;5281235;28;20025;-82
2023/05/07 11:59:44;;;;;;;11.15;10.15;;;;;;;-145.79;65.98;76949.13;5274181;28;20025;-82
2023/05/07 12:02:18;;;;;;;10.98;9.88;;;;;;;-145.79;66.05;76949.13;5272016;28;20052;-82
2023/05/07 12:04:49;;;;;;;10.60;9.60;;;;;;;-145.79;66.63;76944.91;5264745;28;20043;-83
2023/05/07 12:07:21;;;;;;;10.40;9.40;;;;;;;-145.79;66.21;76949.13;5263551;28;20053;-83
2023/05/07 12:09:53;;;;;;;10.38;9.15;;;;;;;-145.79;65.20;76955.50;5278445;28;20021;-81
2023/05/07 12:12:26;;;;;;;8.85;8.05;;;;;;;-145.79;65.39;76961.84;5281794;28;20021;-82
2023/05/07 12:14:58;;;;;;;10.98;10.07;;;;;;;-145.79;65.66;76942.78;5277559;28;20033;-82
2023/05/07 12:17:29;;;;;;;10.48;9.35;;;;;;;-145.79;64.43;76961.84;5266453;28;20183;-82
2023/05/07 12:20:04;;;;;;;9.43;8.63;;;;;;;-145.79;64.72;76966.09;5267388;28;20376;-82
2023/05/07 12:22:36;;;;;;;;;;;;;;;-145.79;65.09;76966.09;5267054;28;20052;-82
2023/05/07 12:25:08;;;;;;;11.38;9.02;;;;;;;-145.79;64.99;76993.63;5268121;28;19905;-82
2023/05/07 12:27:40;;;;;;;9.10;8.15;;;;;;;-145.79;64.87;77000.00;5267300;28;20021;-82
2023/05/07 12:30:12;;;;;;;7.72;7.03;;;;;;;-145.79;64.57;77025.44;5275608;28;20088;-82
2023/05/07 12:32:45;;;;;;;4.53;4.13;;;;;;;-145.79;63.92;77084.78;5273763;28;20033;-81
2023/05/07 12:35:16;;;;;;;4.10;3.70;;;;;;;-145.79;65.71;77116.56;5277136;28;20029;-81
2023/05/07 12:37:55;;;;;;;5.82;3.03;;;;;;;-145.79;66.61;77146.25;5264334;28;20017;-82
2023/05/07 12:40:38;;;;;;;3.58;2.33;;;;;;;-145.79;66.27;77173.78;5262832;28;20026;-83
2023/05/07 12:43:36;;;;;;;4.40;1.88;;;;;;;-145.79;69.41;77207.72;5279961;28;20429;-84
2023/05/07 12:46:07;;;;;;;7.55;2.72;;;;;;;-145.79;74.39;77258.56;5262380;28;20033;-79
2023/05/07 12:48:45;;;;;;;7.75;4.03;;;;;;;-145.79;78.38;77292.50;5260756;28;20024;-80
2023/05/07 12:51:17;;;;;;;7.18;3.47;;;;;;;-145.79;79.75;77317.94;5279844;28;20028;-78
2023/05/07 12:53:48;;;;;;;7.00;3.28;;;;;;;-145.79;81.36;77330.66;5258765;28;20025;-82
2023/05/07 12:56:23;;;;;;;5.95;3.40;;;;;;;-145.79;81.76;77343.38;5244670;28;20032;-83
2023/05/07 12:58:58;;;;;;;9.85;7.13;;;;;;;-145.79;83.31;77347.59;5243578;28;20072;-81
2023/05/07 13:01:31;;;;;;;5.90;5.28;;;;;;;-145.79;82.51;77368.78;5243592;28;20034;-81
2023/05/07 13:04:05;;;;;;;5.53;3.83;;;;;;;-145.79;81.20;77381.50;5242078;28;20099;-83
2023/05/07 13:06:36;;;;;;;8.57;4.03;;;;;;;-145.79;81.53;77385.75;5243411;28;20021;-84
2023/05/07 13:09:08;;;;;;;5.13;3.63;;;;;;;-145.79;82.64;77381.50;5255604;28;20432;-83
2023/05/07 13:11:39;;;;;;;3.65;3.33;;;;;;;-145.79;82.33;77398.47;5243953;28;20033;-82
2023/05/07 13:14:10;;;;;;;5.47;3.88;;;;;;;-145.79;83.21;77400.59;5262499;28;20045;-83
2023/05/07 13:16:42;;;;;;;5.15;3.85;;;;;;;-145.79;83.90;77392.13;5265528;28;20048;-83
2023/05/07 13:19:13;;;;;;;7.45;5.45;;;;;;;-145.79;85.73;77387.88;5262143;28;20055;-82
2023/05/07 13:21:44;;;;;;;9.38;6.85;;;;;;;-145.79;86.82;77385.75;5266228;28;20499;-83
2023/05/07 13:24:16;;;;;;;9.38;7.05;;;;;;;-145.79;87.36;77377.28;5266477;28;20033;-83
2023/05/07 13:26:47;;;;;;;7.32;6.50;;;;;;;-145.79;87.22;77385.75;5268863;28;20033;-82
2023/05/07 13:29:28;;;;;;;7.15;6.45;;;;;;;-145.79;87.26;77385.75;5280669;28;20061;-82
2023/05/07 13:31:59;;;;;;;14.82;13.32;;;;;;;-145.79;87.49;77398.47;5267091;28;20047;-83
2023/05/07 13:34:31;;;;;;;8.30;7.55;;;;;;;-145.79;88.26;77402.72;5248101;28;20025;-83
2023/05/07 13:37:02;;;;;;;7.10;6.50;;;;;;;-145.79;87.92;77402.72;5244748;28;20464;-83
2023/05/07 13:39:33;;;;;;;6.93;6.32;;;;;;;-145.79;88.52;77390.00;5252661;28;20024;-83
2023/05/07 13:42:05;;;;;;;9.15;7.40;;;;;;;-145.79;89.43;77373.03;5251644;28;20072;-82
2023/05/07 13:44:36;;;;;;;62.15;56.25;;;;;;;-145.79;87.42;77383.63;5254572;28;20357;-82
2023/05/07 13:47:07;;;;;;;11.20;10.10;;;;;;;-145.79;88.42;77358.19;5243039;28;20041;-84
2023/05/07 13:49:39;;;;;;;7.45;6.60;;;;;;;-145.79;89.76;77347.59;5243567;28;20096;-83
2023/05/07 13:52:11;;;;;;;6.40;5.85;;;;;;;-145.79;89.85;77326.41;5243476;28;20022;-82
2023/05/07 13:54:42;;;;;;;8.55;5.90;;;;;;;-145.79;89.78;77320.03;5242474;28;20021;-83
2023/05/07 13:57:13;;;;;;;6.03;5.43;;;;;;;-145.79;88.12;77317.94;5243305;28;20025;-81
2023/05/07 13:59:45;;;;;;;6.95;5.90;;;;;;;-145.79;87.96;77315.81;5242682;28;20053;-80
2023/05/07 14:02:16;;;;;;;8.00;6.50;;;;;;;-145.79;86.55;77309.44;5258371;28;20051;-80
2023/05/07 14:04:47;;;;;;;6.88;6.38;;;;;;;-145.79;86.51;77300.97;5263075;28;20021;-80
2023/05/07 14:07:19;;;;;;;9.52;8.50;;;;;;;-145.79;86.36;77300.97;5261056;28;20512;-80
2023/05/07 14:09:50;;;;;;;10.80;9.93;;;;;;;-145.79;87.20;77292.50;5263017;28;20025;-80
2023/05/07 14:12:21;;;;;;;11.02;10.05;;;;;;;-145.79;86.22;77300.97;5263753;28;20048;-80
2023/05/07 14:14:53;;;;;;;11.80;10.82;;;;;;;-145.79;84.75;77300.97;5262643;28;20032;-80
2023/05/07 14:17:26;;;;;;;11.57;10.50;;;;;;;-145.79;86.06;77330.66;5261593;28;20025;-81
2023/05/07 14:19:57;;;;;;;12.82;11.57;;;;;;;-145.79;86.69;77317.94;5242696;28;20412;-81
2023/05/07 14:22:28;;;;;;;10.50;9.60;;;;;;;-145.79;86.21;77326.41;5240163;28;20041;-81
2023/05/07 14:25:00;;;;;;;12.18;11.18;;;;;;;-145.79;86.49;77315.81;5240820;28;20420;-81
2023/05/07 14:27:31;;;;;;;11.55;10.55;;;;;;;-145.79;86.54;77309.44;5239593;28;20100;-81
2023/05/07 14:30:03;;;;;;;10.82;9.93;;;;;;;-145.79;87.31;77307.31;5239977;28;20025;-81
2023/05/07 14:32:34;;;;;;;10.35;9.35;;;;;;;-145.79;85.98;77300.97;5239956;28;20029;-80
2023/05/07 14:35:06;;;;;;;8.35;7.65;;;;;;;-145.79;83.15;77313.69;5240097;28;20041;-79
2023/05/07 14:37:37;;;;;;;8.55;7.82;;;;;;;-145.79;82.13;77322.16;5254268;28;20029;-81
2023/05/07 14:40:09;;;;;;;10.13;9.32;;;;;;;-145.79;84.76;77324.28;5262915;28;20025;-82
2023/05/07 14:42:40;;;;;;;11.70;10.80;;;;;;;-145.79;86.03;77322.16;5262447;28;20035;-82
2023/05/07 14:45:12;;;;;;;10.25;9.35;;;;;;;-145.79;86.14;77324.28;5262824;28;20081;-82
2023/05/07 14:47:43;;;;;;;10.10;9.25;;;;;;;-145.79;86.22;77330.66;5262912;28;20465;-82
2023/05/07 14:50:15;;;;;;;32.75;29.60;;;;;;;-145.79;86.94;77315.81;5262252;28;20037;-82
2023/05/07 14:52:46;;;;;;;12.40;11.20;;;;;;;-145.79;87.60;77326.41;5262308;28;20032;-82
2023/05/07 14:55:17;;;;;;;10.20;9.40;;;;;;;-145.79;87.09;77330.66;5262934;28;20536;-82
2023/05/07 14:57:49;;;;;;;10.02;9.07;;;;;;;-145.79;87.90;77339.13;5262461;28;20056;-82
2023/05/07 15:00:20;;;;;;;10.35;9.52;;;;;;;-145.79;86.78;77347.59;5262794;28;20017;-82
2023/05/07 15:02:52;;;;;;;11.80;10.80;;;;;;;-145.79;87.63;77345.47;5262019;28;20035;-81
2023/05/07 15:05:23;;;;;;;12.70;11.70;;;;;;;-145.79;88.89;77339.13;5262694;28;20053;-81
2023/05/07 15:07:55;;;;;;;14.10;12.90;;;;;;;-145.79;89.39;77330.66;5262931;28;20021;-82
2023/05/07 15:10:27;;;;;;;15.82;14.52;;;;;;;-145.79;88.52;77334.88;5241097;28;20051;-81
2023/05/07 15:12:58;;;;;;;15.50;14.20;;;;;;;-145.79;87.89;77341.25;5242694;28;20025;-82
2023/05/07 15:15:29;;;;;;;16.80;15.23;;;;;;;-145.79;88.66;77343.38;5242272;28;20022;-81
2023/05/07 15:18:01;;;;;;;18.17;16.73;;;;;;;-145.79;90.05;77334.88;5241615;28;20121;-82
2023/05/07 15:20:32;;;;;;;17.75;16.23;;;;;;;-145.79;89.76;77337.00;5241963;28;20388;-78
2023/05/07 15:23:05;;;;;;;17.60;16.13;;;;;;;-145.79;90.17;77343.38;5241920;28;20493;-82
2023/05/07 15:25:37;;;;;;;15.30;13.70;;;;;;;-145.79;92.22;77337.00;5244590;28;20035;-79
2023/05/07 15:28:08;;;;;;;15.23;13.73;;;;;;;-145.79;92.06;77337.00;5261971;28;20028;-79
2023/05/07 15:30:42;;;;;;;14.48;13.27;;;;;;;-145.79;91.70;77322.16;5262171;28;20470;-80
2023/05/07 15:33:14;;;;;;;13.07;12.07;;;;;;;-145.79;91.69;77300.97;5261941;28;20058;-80
2023/05/07 15:35:45;;;;;;;12.60;11.32;;;;;;;-145.79;91.05;77313.69;5262466;28;20385;-81
2023/05/07 15:38:16;;;;;;;12.00;10.88;;;;;;;-145.79;90.56;77300.97;5261968;28;20111;-80
2023/05/07 15:40:48;;;;;;;12.88;11.75;;;;;;;-145.79;90.92;77303.09;5262494;28;20021;-81
2023/05/07 15:43:20;;;;;;;12.93;11.73;;;;;;;-145.79;91.16;77300.97;5265156;28;20499;-78
2023/05/07 15:45:51;;;;;;;12.05;10.95;;;;;;;-145.79;90.77;77292.50;5270472;28;20021;-80
2023/05/07 15:48:22;;;;;;;11.68;10.65;;;;;;;-145.79;90.40;77296.72;5267821;28;20028;-80
2023/05/07 15:50:54;;;;;;;13.48;10.77;;;;;;;-145.79;90.71;77275.53;5266498;28;20033;-83
2023/05/07 15:53:25;;;;;;;12.15;10.98;;;;;;;-145.79;90.17;77284.00;5265829;28;20021;-80
2023/05/07 15:55:56;;;;;;;11.07;10.07;;;;;;;-145.79;89.55;77273.41;5266467;28;20459;-80
2023/05/07 15:58:28;;;;;;;11.32;10.32;;;;;;;-145.79;88.15;77279.78;5266314;28;20025;-79
2023/05/07 16:00:59;;;;;;;10.88;9.50;;;;;;;-145.79;86.33;77296.72;5264552;28;20063;-80
2023/05/07 16:03:31;;;;;;;10.52;9.65;;;;;;;-145.79;86.55;77277.66;5265981;28;20024;-80
2023/05/07 16:06:02;;;;;;;10.05;9.15;;;;;;;-145.79;86.38;77284.00;5265005;28;20409;-78
2023/05/07 16:08:39;;;;;;;10.60;9.60;;;;;;;-145.79;88.21;77271.28;5266073;28;20633;-77
2023/05/07 16:11:10;;;;;;;10.20;9.40;;;;;;;-145.79;87.54;77275.53;5265426;28;20029;-78
2023/05/07 16:13:41;;;;;;;10.73;9.73;;;;;;;-145.79;88.83;77273.41;5265364;28;20017;-77
2023/05/07 16:16:13;;;;;;;9.68;8.88;;;;;;;-145.79;88.24;77269.19;5265183;28;20036;-78
2023/05/07 16:18:44;;;;;;;9.43;8.63;;;;;;;-145.79;86.69;77260.69;5265595;28;20033;-79
2023/05/07 16:21:16;;;;;;;10.88;9.85;;;;;;;-145.79;87.02;77271.28;5266655;28;20083;-78
2023/05/07 16:23:49;;;;;;;11.80;10.65;;;;;;;-145.79;87.38;77269.19;5269175;28;20094;-79
2023/05/07 16:26:20;;;;;;;9.85;9.00;;;;;;;-145.79;87.12;77258.56;5265850;28;20062;-78
2023/05/07 16:28:51;;;;;;;9.68;8.98;;;;;;;-145.79;85.73;77262.81;5265288;28;20024;-79
2023/05/07 16:31:24;;;;;;;10.48;9.43;;;;;;;-145.79;85.72;77264.94;5265261;28;20021;-78
2023/05/07 16:33:55;;;;;;;8.85;8.15;;;;;;;-145.79;85.69;77273.41;5264957;28;20044;-80
2023/05/07 16:36:27;;;;;;;9.70;8.80;;;;;;;-145.79;86.54;77262.81;5271353;28;20017;-78
2023/05/07 16:39:00;;;;;;;10.07;9.18;;;;;;;-145.79;85.95;77275.53;5268293;28;20017;-81
2023/05/07 16:41:32;;;;;;;12.07;11.07;;;;;;;-145.79;87.44;77296.72;5264772;28;20431;-79
2023/05/07 16:44:03;;;;;;;12.40;11.20;;;;;;;-145.79;88.14;77298.84;5265317;28;20025;-80
2023/05/07 16:46:35;;;;;;;10.80;9.80;;;;;;;-145.79;87.98;77305.22;5265573;28;20033;-78
2023/05/07 16:49:06;;;;;;;10.35;9.52;;;;;;;-145.79;87.58;77317.94;5264776;28;20036;-79
2023/05/07 16:51:37;;;;;;;11.30;10.32;;;;;;;-145.79;88.12;77317.94;5253125;28;20021;-79
2023/05/07 16:54:09;;;;;;;10.65;9.75;;;;;;;-145.79;87.39;77330.66;5245000;28;20477;-79
